sensor_id;sensor_type;location;lat;lon;timestamp;temperature;humidity
21891;DHT22;11110;52.386;16.940;2023-03-01T00:01:47;14.60;37.40
21891;DHT22;11110;52.386;16.940;2023-03-01T00:04:15;14.60;37.40
21891;DHT22;11110;52.386;16.940;2023-03-01T00:06:46;14.60;37.50
21891;DHT22;11110;52.386;16.940;2023-03-01T00:09:15;14.50;37.60
21891;DHT22;11110;52.386;16.940;2023-03-01T00:33:19;14.50;37.70
21891;DHT22;11110;52.386;16.940;2023-03-01T00:35:47;14.50;37.60
21891;DHT22;11110;52.386;16.940;2023-03-01T00:38:16;14.50;37.60
21891;DHT22;11110;52.386;16.940;2023-03-01T00:40:45;14.50;37.60
21891;DHT22;11110;52.386;16.940;2023-03-01T00:43:13;14.40;37.70
21891;DHT22;11110;52.386;16.940;2023-03-01T00:45:42;14.40;37.70
21891;DHT22;11110;52.386;16.940;2023-03-01T00:48:11;14.40;37.70
21891;DHT22;11110;52.386;16.940;2023-03-01T00:50:41;14.40;37.70
21891;DHT22;11110;52.386;16.940;2023-03-01T00:53:10;14.50;38.40
21891;DHT22;11110;52.386;16.940;2023-03-01T00:55:38;14.50;37.60
21891;DHT22;11110;52.386;16.940;2023-03-01T00:58:07;14.50;37.60
21891;DHT22;11110;52.386;16.940;2023-03-01T01:00:36;14.50;37.60
21891;DHT22;11110;52.386;16.940;2023-03-01T01:03:04;14.50;37.60
21891;DHT22;11110;52.386;16.940;2023-03-01T01:05:34;14.60;37.40
21891;DHT22;11110;52.386;16.940;2023-03-01T01:08:05;14.60;37.30
21891;DHT22;11110;52.386;16.940;2023-03-01T01:10:34;14.70;36.70
21891;DHT22;11110;52.386;16.940;2023-03-01T01:13:03;14.60;36.50
21891;DHT22;11110;52.386;16.940;2023-03-01T01:15:33;14.50;36.50
21891;DHT22;11110;52.386;16.940;2023-03-01T01:18:03;14.50;36.80
21891;DHT22;11110;52.386;16.940;2023-03-01T01:20:31;14.40;36.70
21891;DHT22;11110;52.386;16.940;2023-03-01T01:23:00;14.40;36.80
21891;DHT22;11110;52.386;16.940;2023-03-01T01:25:30;14.40;36.80
21891;DHT22;11110;52.386;16.940;2023-03-01T01:27:59;14.30;37.10
21891;DHT22;11110;52.386;16.940;2023-03-01T01:30:28;14.20;37.20
21891;DHT22;11110;52.386;16.940;2023-03-01T01:32:57;14.20;37.30
21891;DHT22;11110;52.386;16.940;2023-03-01T01:35:25;14.20;37.10
21891;DHT22;11110;52.386;16.940;2023-03-01T01:37:54;14.20;37.30
21891;DHT22;11110;52.386;16.940;2023-03-01T01:40:23;14.20;37.50
21891;DHT22;11110;52.386;16.940;2023-03-01T01:42:53;14.10;37.50
21891;DHT22;11110;52.386;16.940;2023-03-01T01:45:29;14.10;37.40
21891;DHT22;11110;52.386;16.940;2023-03-01T01:48:01;14.10;37.50
21891;DHT22;11110;52.386;16.940;2023-03-01T01:50:32;14.10;37.70
21891;DHT22;11110;52.386;16.940;2023-03-01T01:53:10;14.10;37.60
21891;DHT22;11110;52.386;16.940;2023-03-01T01:55:43;14.10;37.10
21891;DHT22;11110;52.386;16.940;2023-03-01T01:58:17;14.00;37.10
21891;DHT22;11110;52.386;16.940;2023-03-01T02:00:48;14.00;37.50
21891;DHT22;11110;52.386;16.940;2023-03-01T02:03:20;14.00;37.80
21891;DHT22;11110;52.386;16.940;2023-03-01T02:05:53;14.00;37.80
21891;DHT22;11110;52.386;16.940;2023-03-01T02:08:26;14.00;37.80
21891;DHT22;11110;52.386;16.940;2023-03-01T02:10:58;13.90;37.80
21891;DHT22;11110;52.386;16.940;2023-03-01T02:13:30;13.90;37.80
21891;DHT22;11110;52.386;16.940;2023-03-01T02:18:31;13.80;37.90
21891;DHT22;11110;52.386;16.940;2023-03-01T02:21:13;13.80;37.90
21891;DHT22;11110;52.386;16.940;2023-03-01T02:23:45;13.90;38.00
21891;DHT22;11110;52.386;16.940;2023-03-01T02:26:20;14.00;38.00
21891;DHT22;11110;52.386;16.940;2023-03-01T02:28:53;13.90;38.00
21891;DHT22;11110;52.386;16.940;2023-03-01T02:31:22;14.00;38.10
21891;DHT22;11110;52.386;16.940;2023-03-01T02:34:12;13.90;38.20
21891;DHT22;11110;52.386;16.940;2023-03-01T02:36:45;14.00;38.30
21891;DHT22;11110;52.386;16.940;2023-03-01T02:39:16;14.00;38.10
21891;DHT22;11110;52.386;16.940;2023-03-01T02:41:49;14.00;38.10
21891;DHT22;11110;52.386;16.940;2023-03-01T02:44:21;14.00;38.10
21891;DHT22;11110;52.386;16.940;2023-03-01T02:46:51;14.00;38.10
21891;DHT22;11110;52.386;16.940;2023-03-01T02:49:25;13.90;38.10
21891;DHT22;11110;52.386;16.940;2023-03-01T02:52:07;13.90;38.20
21891;DHT22;11110;52.386;16.940;2023-03-01T02:54:40;13.90;38.20
21891;DHT22;11110;52.386;16.940;2023-03-01T02:57:11;13.90;38.10
21891;DHT22;11110;52.386;16.940;2023-03-01T02:59:42;13.90;38.10
21891;DHT22;11110;52.386;16.940;2023-03-01T03:02:20;13.90;38.10
21891;DHT22;11110;52.386;16.940;2023-03-01T03:05:10;13.80;38.10
21891;DHT22;11110;52.386;16.940;2023-03-01T03:07:40;13.70;38.20
21891;DHT22;11110;52.386;16.940;2023-03-01T03:10:12;13.70;38.20
21891;DHT22;11110;52.386;16.940;2023-03-01T03:12:42;13.80;38.20
21891;DHT22;11110;52.386;16.940;2023-03-01T03:15:12;13.80;38.20
21891;DHT22;11110;52.386;16.940;2023-03-01T03:17:42;13.80;38.10
21891;DHT22;11110;52.386;16.940;2023-03-01T03:20:15;13.80;38.10
21891;DHT22;11110;52.386;16.940;2023-03-01T03:22:47;13.80;38.00
21891;DHT22;11110;52.386;16.940;2023-03-01T03:25:17;13.80;37.90
21891;DHT22;11110;52.386;16.940;2023-03-01T03:27:48;13.80;37.70
21891;DHT22;11110;52.386;16.940;2023-03-01T03:30:19;13.90;37.70
21891;DHT22;11110;52.386;16.940;2023-03-01T03:32:48;13.90;37.50
21891;DHT22;11110;52.386;16.940;2023-03-01T03:35:25;13.90;37.40
21891;DHT22;11110;52.386;16.940;2023-03-01T03:37:53;14.00;37.40
21891;DHT22;11110;52.386;16.940;2023-03-01T03:40:34;13.90;37.30
21891;DHT22;11110;52.386;16.940;2023-03-01T03:43:03;13.90;37.20
21891;DHT22;11110;52.386;16.940;2023-03-01T03:45:34;13.90;37.30
21891;DHT22;11110;52.386;16.940;2023-03-01T03:48:05;13.90;37.20
21891;DHT22;11110;52.386;16.940;2023-03-01T03:50:34;13.80;37.20
21891;DHT22;11110;52.386;16.940;2023-03-01T03:53:04;13.80;37.30
21891;DHT22;11110;52.386;16.940;2023-03-01T03:55:34;13.80;37.30
21891;DHT22;11110;52.386;16.940;2023-03-01T03:58:08;13.70;37.30
21891;DHT22;11110;52.386;16.940;2023-03-01T04:00:41;13.70;37.50
21891;DHT22;11110;52.386;16.940;2023-03-01T04:03:11;13.60;37.70
21891;DHT22;11110;52.386;16.940;2023-03-01T04:05:40;13.60;37.90
21891;DHT22;11110;52.386;16.940;2023-03-01T04:08:09;13.60;38.00
21891;DHT22;11110;52.386;16.940;2023-03-01T04:10:40;13.50;38.00
21891;DHT22;11110;52.386;16.940;2023-03-01T04:13:12;13.60;38.00
21891;DHT22;11110;52.386;16.940;2023-03-01T04:15:42;13.60;38.00
21891;DHT22;11110;52.386;16.940;2023-03-01T04:18:13;13.50;38.00
21891;DHT22;11110;52.386;16.940;2023-03-01T04:20:42;13.50;38.10
21891;DHT22;11110;52.386;16.940;2023-03-01T04:23:13;13.50;38.20
21891;DHT22;11110;52.386;16.940;2023-03-01T04:25:46;13.50;38.90
21891;DHT22;11110;52.386;16.940;2023-03-01T04:28:22;13.40;38.20
21891;DHT22;11110;52.386;16.940;2023-03-01T04:30:54;13.40;38.10
21891;DHT22;11110;52.386;16.940;2023-03-01T04:33:23;13.50;38.10
21891;DHT22;11110;52.386;16.940;2023-03-01T04:35:53;13.50;38.00
21891;DHT22;11110;52.386;16.940;2023-03-01T04:38:21;13.50;38.00
21891;DHT22;11110;52.386;16.940;2023-03-01T04:40:50;13.50;38.00
21891;DHT22;11110;52.386;16.940;2023-03-01T04:43:18;13.50;38.10
21891;DHT22;11110;52.386;16.940;2023-03-01T04:45:47;13.40;38.00
21891;DHT22;11110;52.386;16.940;2023-03-01T04:48:17;13.40;38.10
21891;DHT22;11110;52.386;16.940;2023-03-01T04:50:46;13.40;38.10
21891;DHT22;11110;52.386;16.940;2023-03-01T04:53:16;13.30;38.10
21891;DHT22;11110;52.386;16.940;2023-03-01T04:55:46;13.40;38.20
21891;DHT22;11110;52.386;16.940;2023-03-01T04:58:15;13.40;38.20
21891;DHT22;11110;52.386;16.940;2023-03-01T05:00:43;13.40;38.30
21891;DHT22;11110;52.386;16.940;2023-03-01T05:03:12;13.30;38.20
21891;DHT22;11110;52.386;16.940;2023-03-01T05:05:50;13.40;38.20
21891;DHT22;11110;52.386;16.940;2023-03-01T05:08:18;13.30;38.20
21891;DHT22;11110;52.386;16.940;2023-03-01T05:10:50;13.30;38.20
21891;DHT22;11110;52.386;16.940;2023-03-01T05:13:19;13.30;38.20
21891;DHT22;11110;52.386;16.940;2023-03-01T05:15:54;13.30;38.20
21891;DHT22;11110;52.386;16.940;2023-03-01T05:18:23;13.20;38.30
21891;DHT22;11110;52.386;16.940;2023-03-01T05:20:55;13.20;38.40
21891;DHT22;11110;52.386;16.940;2023-03-01T05:23:25;13.20;38.40
21891;DHT22;11110;52.386;16.940;2023-03-01T05:25:57;13.20;38.40
21891;DHT22;11110;52.386;16.940;2023-03-01T05:28:27;13.20;38.50
21891;DHT22;11110;52.386;16.940;2023-03-01T05:30:58;13.20;38.60
21891;DHT22;11110;52.386;16.940;2023-03-01T05:33:27;13.20;38.60
21891;DHT22;11110;52.386;16.940;2023-03-01T05:36:00;13.10;38.60
21891;DHT22;11110;52.386;16.940;2023-03-01T05:38:28;13.20;38.60
21891;DHT22;11110;52.386;16.940;2023-03-01T05:40:57;13.10;38.40
21891;DHT22;11110;52.386;16.940;2023-03-01T05:43:25;13.20;38.40
21891;DHT22;11110;52.386;16.940;2023-03-01T05:45:57;13.20;38.30
21891;DHT22;11110;52.386;16.940;2023-03-01T05:48:27;13.20;38.40
21891;DHT22;11110;52.386;16.940;2023-03-01T05:50:59;13.10;38.50
21891;DHT22;11110;52.386;16.940;2023-03-01T05:53:28;13.10;38.50
21891;DHT22;11110;52.386;16.940;2023-03-01T05:55:57;13.10;38.50
21891;DHT22;11110;52.386;16.940;2023-03-01T05:58:25;13.10;38.50
21891;DHT22;11110;52.386;16.940;2023-03-01T06:00:54;13.10;38.40
21891;DHT22;11110;52.386;16.940;2023-03-01T06:03:23;13.10;38.50
21891;DHT22;11110;52.386;16.940;2023-03-01T06:05:57;13.10;38.50
21891;DHT22;11110;52.386;16.940;2023-03-01T06:08:25;13.10;38.70
21891;DHT22;11110;52.386;16.940;2023-03-01T06:10:55;13.10;38.70
21891;DHT22;11110;52.386;16.940;2023-03-01T06:13:24;13.20;38.70
21891;DHT22;11110;52.386;16.940;2023-03-01T06:15:53;13.20;38.80
21891;DHT22;11110;52.386;16.940;2023-03-01T06:18:22;13.20;38.60
21891;DHT22;11110;52.386;16.940;2023-03-01T06:20:53;13.30;38.60
21891;DHT22;11110;52.386;16.940;2023-03-01T06:23:24;13.40;38.40
21891;DHT22;11110;52.386;16.940;2023-03-01T06:25:53;13.30;38.40
21891;DHT22;11110;52.386;16.940;2023-03-01T06:28:21;13.30;38.40
21891;DHT22;11110;52.386;16.940;2023-03-01T06:30:51;13.30;38.40
21891;DHT22;11110;52.386;16.940;2023-03-01T06:33:19;13.30;38.40
21891;DHT22;11110;52.386;16.940;2023-03-01T06:35:50;13.30;38.40
21891;DHT22;11110;52.386;16.940;2023-03-01T06:38:19;13.30;38.40
21891;DHT22;11110;52.386;16.940;2023-03-01T06:40:53;13.20;38.40
21891;DHT22;11110;52.386;16.940;2023-03-01T06:43:23;13.20;38.60
21891;DHT22;11110;52.386;16.940;2023-03-01T06:45:52;13.30;38.60
21891;DHT22;11110;52.386;16.940;2023-03-01T06:48:21;13.30;38.60
21891;DHT22;11110;52.386;16.940;2023-03-01T06:50:49;13.30;38.60
21891;DHT22;11110;52.386;16.940;2023-03-01T06:53:18;13.40;38.60
21891;DHT22;11110;52.386;16.940;2023-03-01T06:55:47;13.40;38.40
21891;DHT22;11110;52.386;16.940;2023-03-01T06:58:17;13.50;38.40
21891;DHT22;11110;52.386;16.940;2023-03-01T07:00:46;13.50;38.40
21891;DHT22;11110;52.386;16.940;2023-03-01T07:03:14;13.50;38.40
21891;DHT22;11110;52.386;16.940;2023-03-01T07:05:43;13.50;38.40
21891;DHT22;11110;52.386;16.940;2023-03-01T07:08:12;13.60;38.50
21891;DHT22;11110;52.386;16.940;2023-03-01T07:10:41;13.60;38.60
21891;DHT22;11110;52.386;16.940;2023-03-01T07:13:10;13.60;38.70
21891;DHT22;11110;52.386;16.940;2023-03-01T07:15:40;13.70;38.70
21891;DHT22;11110;52.386;16.940;2023-03-01T07:18:09;13.70;38.70
21891;DHT22;11110;52.386;16.940;2023-03-01T07:20:38;13.70;38.70
21891;DHT22;11110;52.386;16.940;2023-03-01T07:23:06;13.80;38.70
21891;DHT22;11110;52.386;16.940;2023-03-01T07:25:35;13.80;38.70
21891;DHT22;11110;52.386;16.940;2023-03-01T07:28:04;13.90;38.60
21891;DHT22;11110;52.386;16.940;2023-03-01T07:30:33;14.00;38.70
21891;DHT22;11110;52.386;16.940;2023-03-01T07:33:03;14.00;38.60
21891;DHT22;11110;52.386;16.940;2023-03-01T07:35:33;14.00;38.60
21891;DHT22;11110;52.386;16.940;2023-03-01T07:38:01;14.00;38.50
21891;DHT22;11110;52.386;16.940;2023-03-01T07:40:30;14.10;38.50
21891;DHT22;11110;52.386;16.940;2023-03-01T07:42:59;14.10;38.60
21891;DHT22;11110;52.386;16.940;2023-03-01T07:45:29;14.20;38.60
21891;DHT22;11110;52.386;16.940;2023-03-01T07:47:57;14.20;38.80
21891;DHT22;11110;52.386;16.940;2023-03-01T07:50:27;14.20;38.80
21891;DHT22;11110;52.386;16.940;2023-03-01T07:52:56;14.30;38.90
21891;DHT22;11110;52.386;16.940;2023-03-01T07:55:24;14.30;38.90
21891;DHT22;11110;52.386;16.940;2023-03-01T07:57:53;14.30;38.80
21891;DHT22;11110;52.386;16.940;2023-03-01T08:00:22;14.40;38.80
21891;DHT22;11110;52.386;16.940;2023-03-01T08:02:51;14.50;38.70
21891;DHT22;11110;52.386;16.940;2023-03-01T08:05:20;14.60;38.80
21891;DHT22;11110;52.386;16.940;2023-03-01T08:07:50;14.60;38.70
21891;DHT22;11110;52.386;16.940;2023-03-01T08:10:19;14.60;38.50
21891;DHT22;11110;52.386;16.940;2023-03-01T08:12:48;14.70;38.10
21891;DHT22;11110;52.386;16.940;2023-03-01T08:15:19;14.80;38.00
21891;DHT22;11110;52.386;16.940;2023-03-01T08:17:49;14.90;37.90
21891;DHT22;11110;52.386;16.940;2023-03-01T08:20:18;14.90;37.90
21891;DHT22;11110;52.386;16.940;2023-03-01T08:22:46;15.00;38.00
21891;DHT22;11110;52.386;16.940;2023-03-01T08:25:17;15.10;38.00
21891;DHT22;11110;52.386;16.940;2023-03-01T08:27:45;15.20;38.00
21891;DHT22;11110;52.386;16.940;2023-03-01T08:30:15;15.30;38.00
21891;DHT22;11110;52.386;16.940;2023-03-01T08:32:43;15.30;38.10
21891;DHT22;11110;52.386;16.940;2023-03-01T08:35:12;15.40;38.00
21891;DHT22;11110;52.386;16.940;2023-03-01T08:37:40;15.50;38.00
21891;DHT22;11110;52.386;16.940;2023-03-01T08:40:11;15.60;38.00
21891;DHT22;11110;52.386;16.940;2023-03-01T08:42:42;15.70;37.90
21891;DHT22;11110;52.386;16.940;2023-03-01T08:45:11;15.80;37.80
21891;DHT22;11110;52.386;16.940;2023-03-01T08:47:41;15.90;37.60
21891;DHT22;11110;52.386;16.940;2023-03-01T08:50:10;15.90;37.30
21891;DHT22;11110;52.386;16.940;2023-03-01T08:52:39;16.00;37.20
21891;DHT22;11110;52.386;16.940;2023-03-01T08:55:08;16.10;37.30
21891;DHT22;11110;52.386;16.940;2023-03-01T08:57:37;16.10;37.00
21891;DHT22;11110;52.386;16.940;2023-03-01T09:00:09;16.40;35.30
21891;DHT22;11110;52.386;16.940;2023-03-01T09:02:38;16.50;34.60
21891;DHT22;11110;52.386;16.940;2023-03-01T09:05:08;16.70;34.20
21891;DHT22;11110;52.386;16.940;2023-03-01T09:07:36;16.90;33.90
21891;DHT22;11110;52.386;16.940;2023-03-01T09:10:06;16.70;34.20
21891;DHT22;11110;52.386;16.940;2023-03-01T09:12:35;16.70;33.70
21891;DHT22;11110;52.386;16.940;2023-03-01T09:15:04;16.80;33.40
21891;DHT22;11110;52.386;16.940;2023-03-01T09:17:34;16.90;33.40
21891;DHT22;11110;52.386;16.940;2023-03-01T09:20:03;16.70;33.30
21891;DHT22;11110;52.386;16.940;2023-03-01T09:22:33;16.80;33.30
21891;DHT22;11110;52.386;16.940;2023-03-01T09:25:02;16.80;33.60
21891;DHT22;11110;52.386;16.940;2023-03-01T09:27:31;16.90;33.70
21891;DHT22;11110;52.386;16.940;2023-03-01T09:30:00;17.00;33.60
21891;DHT22;11110;52.386;16.940;2023-03-01T09:32:30;17.00;33.50
21891;DHT22;11110;52.386;16.940;2023-03-01T09:35:00;17.10;33.40
21891;DHT22;11110;52.386;16.940;2023-03-01T09:37:32;17.40;33.00
21891;DHT22;11110;52.386;16.940;2023-03-01T09:40:01;17.30;33.00
21891;DHT22;11110;52.386;16.940;2023-03-01T09:42:32;17.40;32.80
21891;DHT22;11110;52.386;16.940;2023-03-01T09:45:04;17.40;32.60
21891;DHT22;11110;52.386;16.940;2023-03-01T09:47:34;17.50;32.30
21891;DHT22;11110;52.386;16.940;2023-03-01T09:50:11;17.50;32.70
21891;DHT22;11110;52.386;16.940;2023-03-01T09:52:42;17.60;32.40
21891;DHT22;11110;52.386;16.940;2023-03-01T09:55:14;17.70;31.70
21891;DHT22;11110;52.386;16.940;2023-03-01T09:57:47;17.80;31.70
21891;DHT22;11110;52.386;16.940;2023-03-01T10:00:28;18.20;31.00
21891;DHT22;11110;52.386;16.940;2023-03-01T10:03:02;17.90;31.20
21891;DHT22;11110;52.386;16.940;2023-03-01T10:05:44;17.90;31.30
21891;DHT22;11110;52.386;16.940;2023-03-01T10:08:31;18.00;31.40
21891;DHT22;11110;52.386;16.940;2023-03-01T10:11:05;18.10;31.60
21891;DHT22;11110;52.386;16.940;2023-03-01T10:13:48;17.90;31.60
21891;DHT22;11110;52.386;16.940;2023-03-01T10:16:24;18.00;31.70
21891;DHT22;11110;52.386;16.940;2023-03-01T10:18:59;18.00;31.80
21891;DHT22;11110;52.386;16.940;2023-03-01T10:21:30;18.10;32.00
21891;DHT22;11110;52.386;16.940;2023-03-01T10:24:10;18.10;32.00
21891;DHT22;11110;52.386;16.940;2023-03-01T10:26:47;18.40;31.90
21891;DHT22;11110;52.386;16.940;2023-03-01T10:29:16;18.60;31.50
21891;DHT22;11110;52.386;16.940;2023-03-01T10:31:47;18.50;31.40
21891;DHT22;11110;52.386;16.940;2023-03-01T10:34:19;18.70;31.20
21891;DHT22;11110;52.386;16.940;2023-03-01T10:36:51;18.50;31.30
21891;DHT22;11110;52.386;16.940;2023-03-01T10:39:22;18.70;31.20
21891;DHT22;11110;52.386;16.940;2023-03-01T10:41:55;18.50;31.30
21891;DHT22;11110;52.386;16.940;2023-03-01T10:44:38;18.50;31.30
21891;DHT22;11110;52.386;16.940;2023-03-01T10:47:14;18.90;31.30
21891;DHT22;11110;52.386;16.940;2023-03-01T10:49:57;18.80;31.80
21891;DHT22;11110;52.386;16.940;2023-03-01T10:52:32;18.90;31.80
21891;DHT22;11110;52.386;16.940;2023-03-01T10:55:04;18.90;31.60
21891;DHT22;11110;52.386;16.940;2023-03-01T10:57:46;18.90;31.70
21891;DHT22;11110;52.386;16.940;2023-03-01T11:00:33;18.90;32.20
21891;DHT22;11110;52.386;16.940;2023-03-01T11:03:09;19.00;31.70
21891;DHT22;11110;52.386;16.940;2023-03-01T11:05:51;19.00;31.60
21891;DHT22;11110;52.386;16.940;2023-03-01T11:08:49;19.20;31.70
21891;DHT22;11110;52.386;16.940;2023-03-01T11:11:31;19.20;31.80
21891;DHT22;11110;52.386;16.940;2023-03-01T11:14:05;19.30;31.80
21891;DHT22;11110;52.386;16.940;2023-03-01T11:17:00;19.30;32.10
21891;DHT22;11110;52.386;16.940;2023-03-01T11:19:30;19.40;31.60
21891;DHT22;11110;52.386;16.940;2023-03-01T11:22:02;19.50;31.50
21891;DHT22;11110;52.386;16.940;2023-03-01T11:24:41;19.50;31.40
21891;DHT22;11110;52.386;16.940;2023-03-01T11:27:19;19.70;31.40
21891;DHT22;11110;52.386;16.940;2023-03-01T11:29:53;19.80;31.20
21891;DHT22;11110;52.386;16.940;2023-03-01T11:32:26;19.70;31.10
21891;DHT22;11110;52.386;16.940;2023-03-01T11:34:59;19.70;31.30
21891;DHT22;11110;52.386;16.940;2023-03-01T11:37:34;19.90;31.30
21891;DHT22;11110;52.386;16.940;2023-03-01T11:40:12;20.00;31.10
21891;DHT22;11110;52.386;16.940;2023-03-01T11:42:56;20.00;31.30
21891;DHT22;11110;52.386;16.940;2023-03-01T11:45:36;20.00;31.80
21891;DHT22;11110;52.386;16.940;2023-03-01T11:48:28;20.00;31.70
21891;DHT22;11110;52.386;16.940;2023-03-01T11:51:23;20.20;31.60
21891;DHT22;11110;52.386;16.940;2023-03-01T11:54:06;20.40;31.30
21891;DHT22;11110;52.386;16.940;2023-03-01T11:56:43;20.60;31.30
21891;DHT22;11110;52.386;16.940;2023-03-01T12:02:37;20.50;31.40
21891;DHT22;11110;52.386;16.940;2023-03-01T12:05:18;20.50;31.40
21891;DHT22;11110;52.386;16.940;2023-03-01T12:07:55;20.60;31.10
21891;DHT22;11110;52.386;16.940;2023-03-01T12:10:29;20.80;30.90
21891;DHT22;11110;52.386;16.940;2023-03-01T12:13:13;20.80;31.30
21891;DHT22;11110;52.386;16.940;2023-03-01T12:16:07;20.80;31.00
21891;DHT22;11110;52.386;16.940;2023-03-01T12:18:59;20.80;31.10
21891;DHT22;11110;52.386;16.940;2023-03-01T12:21:39;20.80;31.10
21891;DHT22;11110;52.386;16.940;2023-03-01T12:24:29;20.90;31.00
21891;DHT22;11110;52.386;16.940;2023-03-01T12:27:15;20.90;31.30
21891;DHT22;11110;52.386;16.940;2023-03-01T12:29:54;20.90;31.40
21891;DHT22;11110;52.386;16.940;2023-03-01T12:32:44;21.20;31.10
21891;DHT22;11110;52.386;16.940;2023-03-01T12:35:46;21.30;30.70
21891;DHT22;11110;52.386;16.940;2023-03-01T12:38:36;21.30;30.40
21891;DHT22;11110;52.386;16.940;2023-03-01T12:41:27;21.30;30.60
21891;DHT22;11110;52.386;16.940;2023-03-01T12:44:08;21.50;30.70
21891;DHT22;11110;52.386;16.940;2023-03-01T12:46:56;21.60;30.50
21891;DHT22;11110;52.386;16.940;2023-03-01T12:49:32;21.60;30.50
21891;DHT22;11110;52.386;16.940;2023-03-01T12:52:07;21.70;30.60
21891;DHT22;11110;52.386;16.940;2023-03-01T12:54:38;21.90;30.20
21891;DHT22;11110;52.386;16.940;2023-03-01T12:57:14;21.90;30.10
21891;DHT22;11110;52.386;16.940;2023-03-01T12:59:48;21.90;30.50
21891;DHT22;11110;52.386;16.940;2023-03-01T13:02:24;22.00;30.40
21891;DHT22;11110;52.386;16.940;2023-03-01T13:05:10;22.30;30.20
21891;DHT22;11110;52.386;16.940;2023-03-01T13:07:54;22.40;29.90
21891;DHT22;11110;52.386;16.940;2023-03-01T13:10:27;22.30;30.00
21891;DHT22;11110;52.386;16.940;2023-03-01T13:13:10;22.40;30.00
21891;DHT22;11110;52.386;16.940;2023-03-01T13:15:40;22.30;30.20
21891;DHT22;11110;52.386;16.940;2023-03-01T13:18:30;22.30;30.30
21891;DHT22;11110;52.386;16.940;2023-03-01T13:21:03;22.20;30.40
21891;DHT22;11110;52.386;16.940;2023-03-01T13:23:35;22.20;30.60
21891;DHT22;11110;52.386;16.940;2023-03-01T13:26:10;22.10;30.50
21891;DHT22;11110;52.386;16.940;2023-03-01T13:28:48;22.10;30.60
21891;DHT22;11110;52.386;16.940;2023-03-01T13:34:56;22.30;30.40
21891;DHT22;11110;52.386;16.940;2023-03-01T13:37:36;22.30;30.20
21891;DHT22;11110;52.386;16.940;2023-03-01T13:43:27;22.20;30.40
21891;DHT22;11110;52.386;16.940;2023-03-01T13:45:58;22.40;30.40
21891;DHT22;11110;52.386;16.940;2023-03-01T13:48:29;22.40;30.10
21891;DHT22;11110;52.386;16.940;2023-03-01T13:51:02;22.60;30.20
21891;DHT22;11110;52.386;16.940;2023-03-01T13:53:34;22.50;30.00
21891;DHT22;11110;52.386;16.940;2023-03-01T13:56:08;22.70;29.80
21891;DHT22;11110;52.386;16.940;2023-03-01T13:58:49;22.70;29.90
21891;DHT22;11110;52.386;16.940;2023-03-01T14:01:24;22.70;29.90
21891;DHT22;11110;52.386;16.940;2023-03-01T14:03:54;22.80;29.80
21891;DHT22;11110;52.386;16.940;2023-03-01T14:06:25;22.80;29.80
21891;DHT22;11110;52.386;16.940;2023-03-01T14:09:03;22.90;29.50
21891;DHT22;11110;52.386;16.940;2023-03-01T14:14:44;22.60;29.90
21891;DHT22;11110;52.386;16.940;2023-03-01T14:20:12;22.80;29.90
21891;DHT22;11110;52.386;16.940;2023-03-01T14:22:43;22.90;29.70
21891;DHT22;11110;52.386;16.940;2023-03-01T14:25:27;23.10;29.20
21891;DHT22;11110;52.386;16.940;2023-03-01T14:28:03;23.20;29.20
21891;DHT22;11110;52.386;16.940;2023-03-01T14:30:36;23.10;29.10
21891;DHT22;11110;52.386;16.940;2023-03-01T14:33:18;23.00;29.20
21891;DHT22;11110;52.386;16.940;2023-03-01T14:35:54;23.00;29.30
21891;DHT22;11110;52.386;16.940;2023-03-01T14:38:31;23.00;29.30
21891;DHT22;11110;52.386;16.940;2023-03-01T14:41:06;23.10;29.60
21891;DHT22;11110;52.386;16.940;2023-03-01T14:43:37;23.20;29.40
21891;DHT22;11110;52.386;16.940;2023-03-01T14:46:06;23.20;28.90
21891;DHT22;11110;52.386;16.940;2023-03-01T14:48:34;23.40;28.70
21891;DHT22;11110;52.386;16.940;2023-03-01T14:51:05;23.40;28.70
21891;DHT22;11110;52.386;16.940;2023-03-01T14:53:36;23.20;28.80
21891;DHT22;11110;52.386;16.940;2023-03-01T14:56:17;23.30;28.70
21891;DHT22;11110;52.386;16.940;2023-03-01T14:58:50;23.20;28.60
21891;DHT22;11110;52.386;16.940;2023-03-01T15:01:20;23.10;28.90
21891;DHT22;11110;52.386;16.940;2023-03-01T15:03:50;23.10;28.90
21891;DHT22;11110;52.386;16.940;2023-03-01T15:06:21;23.30;28.70
21891;DHT22;11110;52.386;16.940;2023-03-01T15:08:53;23.20;28.80
21891;DHT22;11110;52.386;16.940;2023-03-01T15:11:27;23.30;28.80
21891;DHT22;11110;52.386;16.940;2023-03-01T15:13:57;23.10;28.80
21891;DHT22;11110;52.386;16.940;2023-03-01T15:16:29;22.90;29.10
21891;DHT22;11110;52.386;16.940;2023-03-01T15:19:01;22.90;29.20
21891;DHT22;11110;52.386;16.940;2023-03-01T15:21:32;22.90;29.30
21891;DHT22;11110;52.386;16.940;2023-03-01T15:24:06;22.90;29.50
21891;DHT22;11110;52.386;16.940;2023-03-01T15:26:51;23.10;29.50
21891;DHT22;11110;52.386;16.940;2023-03-01T15:29:24;22.90;29.40
21891;DHT22;11110;52.386;16.940;2023-03-01T15:31:56;22.90;29.50
21891;DHT22;11110;52.386;16.940;2023-03-01T15:34:26;22.90;29.60
21891;DHT22;11110;52.386;16.940;2023-03-01T15:36:56;23.00;29.40
21891;DHT22;11110;52.386;16.940;2023-03-01T15:39:32;23.00;29.50
21891;DHT22;11110;52.386;16.940;2023-03-01T15:42:06;23.10;29.40
21891;DHT22;11110;52.386;16.940;2023-03-01T15:44:37;23.10;29.60
21891;DHT22;11110;52.386;16.940;2023-03-01T15:47:26;23.10;29.50
21891;DHT22;11110;52.386;16.940;2023-03-01T15:49:57;23.20;29.30
21891;DHT22;11110;52.386;16.940;2023-03-01T15:52:28;23.20;29.20
21891;DHT22;11110;52.386;16.940;2023-03-01T15:55:18;23.10;29.30
21891;DHT22;11110;52.386;16.940;2023-03-01T15:57:48;23.20;29.40
21891;DHT22;11110;52.386;16.940;2023-03-01T16:00:18;23.10;29.40
21891;DHT22;11110;52.386;16.940;2023-03-01T16:02:46;23.10;29.40
21891;DHT22;11110;52.386;16.940;2023-03-01T16:05:19;23.10;29.40
21891;DHT22;11110;52.386;16.940;2023-03-01T16:07:49;23.20;29.20
21891;DHT22;11110;52.386;16.940;2023-03-01T16:10:19;23.10;29.10
21891;DHT22;11110;52.386;16.940;2023-03-01T16:12:48;23.20;29.30
21891;DHT22;11110;52.386;16.940;2023-03-01T16:15:20;23.00;29.20
21891;DHT22;11110;52.386;16.940;2023-03-01T16:17:50;22.90;29.20
21891;DHT22;11110;52.386;16.940;2023-03-01T16:20:22;22.90;29.20
21891;DHT22;11110;52.386;16.940;2023-03-01T16:22:58;22.80;29.20
21891;DHT22;11110;52.386;16.940;2023-03-01T16:25:29;22.80;29.40
21891;DHT22;11110;52.386;16.940;2023-03-01T16:27:59;22.70;29.40
21891;DHT22;11110;52.386;16.940;2023-03-01T16:30:32;22.60;29.50